Main page
METAR-TAF:

METAR-TAF

Airports :

Jim Hogg County Airport

Hebbronville, Texas, United States

latitude: 27-20N, longitude: 098-44W, elevation: 663 ft

Current weather observation

The report was made 10 minutes ago, at 13:35 UTC
Wind 16 mph from the South/Southeast with gusts up to 23 mph
Temperature 79°F
Humidity 84%
Pressure 29.81 in. Hg
Visibility: 5 miles
Overcast at a height of 1400 ft
haze

METAR: KHBV 201335Z AUTO 16014G20KT 5SM HZ OVC014 26/23 A2981 RMK AO2 T02580229

Time: 08:45 (13:45 UTC)


TAF: missing

Weather observations and forecasts of more than 4000 airports (METAR and TAF reports).

The available stations are represented by yellow and red dots on the map.

Hover mouse over dot to see the name of the station.

Then click to see weather observations and forecasts.

To change the map : click on the green buttons with a black cross to zoom in, on the green button with a dash to zoom out, or on the green arrows for adjacent maps.


METAR-TAF: